Crawfordsville, Iowa
Current Conditions -  °F | °C
As of 4:35 AM on Sunday 26 Oct 2014 (Local Time) from KAWG Reporting Station
Clear Clear  
Wind Chill:   Ceiling: Unl
Heat Index:   Visibility: 10mi
Dew Point:   Wind: 7mph
Humidity: 71%   Direction: 40°NE
Pressure: 30.03"   Gusts: NA
Location:  41.24°N, 91.56°W
Report Text: KAWG 260935Z AUTO 04006KT 10SM CLR 08/03 A3003 RMK AO2
Loading
Personal Weather Stations






























Interactive Weather Map
Tropical Storm Tracking
New forecast layout! Learn more

10-Day Weather Forecast

Advertisements
Track Severe Weather on mobile